createdAt,value
2023-03-16T00:00:14.068Z,14.87
2023-03-16T00:02:45.029Z,14.86
2023-03-16T00:05:13.727Z,14.85
2023-03-16T00:07:43.636Z,14.85
2023-03-16T00:10:12.941Z,14.89
2023-03-16T00:12:44.037Z,14.92
2023-03-16T00:15:14.109Z,14.92
2023-03-16T00:17:42.773Z,14.91
2023-03-16T00:20:15.400Z,14.89
2023-03-16T00:22:44.048Z,14.88
2023-03-16T00:25:12.921Z,14.86
2023-03-16T00:27:41.565Z,14.84
2023-03-16T00:30:11.788Z,14.86
2023-03-16T00:32:45.067Z,14.90
2023-03-16T00:35:13.848Z,14.93
2023-03-16T00:37:43.816Z,14.89
2023-03-16T00:40:13.046Z,14.82
2023-03-16T00:42:41.735Z,14.77
2023-03-16T00:45:17.915Z,14.72
2023-03-16T00:47:46.804Z,14.65
2023-03-16T00:50:15.819Z,14.58
2023-03-16T00:52:44.366Z,14.53
2023-03-16T00:55:13.299Z,14.51
2023-03-16T00:57:45.051Z,14.50
2023-03-16T01:00:17.107Z,14.47
2023-03-16T01:02:45.738Z,14.41
2023-03-16T01:05:14.770Z,14.33
2023-03-16T01:07:43.170Z,14.30
2023-03-16T01:10:12.283Z,14.29
2023-03-16T01:12:41.876Z,14.28
2023-03-16T01:15:10.750Z,14.28
2023-03-16T01:17:39.252Z,14.30
2023-03-16T01:20:12.446Z,14.34
2023-03-16T01:22:42.563Z,14.38
2023-03-16T01:25:12.569Z,14.38
2023-03-16T01:30:12.421Z,13.04
2023-03-16T01:32:41.942Z,13.99
2023-03-16T01:35:14.078Z,13.99
2023-03-16T01:37:42.467Z,13.90
2023-03-16T01:40:22.639Z,13.78
2023-03-16T01:43:02.328Z,13.71
2023-03-16T01:45:55.941Z,13.70
2023-03-16T01:48:26.056Z,13.71
2023-03-16T01:50:54.337Z,13.70
2023-03-16T01:53:22.960Z,13.68
2023-03-16T01:55:51.349Z,13.67
2023-03-16T01:58:20.592Z,13.67
2023-03-16T02:00:48.645Z,13.66
2023-03-16T02:03:21.992Z,13.65
2023-03-16T02:06:11.946Z,13.68
2023-03-16T02:08:43.223Z,13.77
2023-03-16T02:11:11.687Z,13.83
2023-03-16T02:13:49.095Z,13.87
2023-03-16T02:16:19.720Z,13.88
2023-03-16T02:18:49.256Z,13.88
2023-03-16T02:21:25.681Z,13.89
2023-03-16T02:23:53.860Z,13.90
2023-03-16T02:26:25.665Z,13.92
2023-03-16T02:29:20.419Z,13.96
2023-03-16T02:31:49.034Z,14.03
2023-03-16T02:34:18.310Z,14.07
2023-03-16T02:36:46.899Z,14.11
2023-03-16T02:39:15.898Z,14.12
2023-03-16T02:41:47.039Z,14.12
2023-03-16T02:44:18.703Z,14.13
2023-03-16T02:46:47.004Z,14.14
2023-03-16T02:49:20.806Z,14.18
2023-03-16T02:51:49.061Z,14.23
2023-03-16T02:54:17.668Z,14.30
2023-03-16T02:56:47.654Z,14.35
2023-03-16T02:59:16.141Z,14.43
2023-03-16T03:01:47.803Z,14.45
2023-03-16T03:04:16.171Z,14.43
2023-03-16T03:06:44.385Z,14.42
2023-03-16T03:09:14.595Z,14.40
2023-03-16T03:11:43.260Z,14.40
2023-03-16T03:14:17.064Z,14.41
2023-03-16T03:16:47.762Z,14.43
2023-03-16T03:19:17.411Z,14.49
2023-03-16T03:21:45.889Z,14.56
2023-03-16T03:24:14.005Z,14.62
2023-03-16T03:26:42.342Z,14.67
2023-03-16T03:29:14.614Z,14.68
2023-03-16T03:31:43.876Z,14.62
2023-03-16T03:34:13.680Z,14.56
2023-03-16T03:36:43.134Z,14.51
2023-03-16T03:39:11.211Z,14.48
2023-03-16T03:41:41.372Z,14.48
2023-03-16T03:44:11.060Z,14.51
2023-03-16T03:46:44.409Z,14.58
2023-03-16T03:49:13.025Z,14.62
2023-03-16T03:51:41.726Z,14.63
2023-03-16T03:54:15.120Z,14.62
2023-03-16T03:56:52.525Z,14.58
2023-03-16T03:59:22.690Z,14.53
2023-03-16T04:02:06.249Z,14.49
2023-03-16T04:04:45.400Z,14.50
2023-03-16T04:07:14.599Z,14.52
2023-03-16T04:09:43.482Z,14.55
2023-03-16T04:12:19.747Z,14.55
2023-03-16T04:14:50.504Z,14.53
2023-03-16T04:17:19.072Z,14.51
2023-03-16T04:19:48.415Z,14.50
2023-03-16T04:22:17.905Z,14.46
2023-03-16T04:24:47.995Z,14.45
2023-03-16T04:27:16.273Z,14.43
2023-03-16T04:29:44.466Z,14.37
2023-03-16T04:32:14.253Z,14.29
2023-03-16T04:34:44.068Z,14.23
2023-03-16T04:37:13.385Z,14.16
2023-03-16T04:39:44.912Z,14.11
2023-03-16T04:42:13.841Z,14.06
2023-03-16T04:44:46.200Z,14.00
2023-03-16T04:47:16.470Z,13.92
2023-03-16T04:49:46.382Z,13.87
2023-03-16T04:52:14.825Z,13.81
2023-03-16T04:54:43.105Z,13.77
2023-03-16T04:57:12.817Z,13.74
2023-03-16T04:59:45.500Z,13.73
2023-03-16T05:02:35.182Z,13.65
2023-03-16T05:05:05.126Z,13.59
2023-03-16T05:07:41.585Z,13.57
2023-03-16T05:10:11.841Z,13.60
2023-03-16T05:12:40.170Z,13.60
2023-03-16T05:15:11.753Z,13.61
2023-03-16T05:17:46.966Z,13.61
2023-03-16T05:20:16.509Z,13.61
2023-03-16T05:22:49.353Z,13.56
2023-03-16T05:25:32.894Z,13.46
2023-03-16T05:28:06.083Z,13.39
2023-03-16T05:30:47.489Z,13.38
2023-03-16T05:33:19.739Z,13.44
2023-03-16T05:35:51.391Z,13.46
2023-03-16T05:38:20.904Z,13.46
2023-03-16T05:40:54.700Z,13.43
2023-03-16T05:43:48.765Z,13.36
2023-03-16T05:46:20.216Z,13.36
2023-03-16T05:48:49.813Z,13.38
2023-03-16T05:51:29.403Z,13.34
2023-03-16T05:53:58.133Z,13.28
2023-03-16T05:56:33.942Z,13.25
2023-03-16T05:59:03.056Z,13.26
2023-03-16T06:01:31.626Z,13.27
2023-03-16T06:04:00.230Z,13.32
2023-03-16T06:06:29.935Z,13.38
2023-03-16T06:09:06.387Z,13.35
2023-03-16T06:11:36.826Z,13.34
2023-03-16T06:14:05.518Z,13.34
2023-03-16T06:16:33.893Z,13.33
2023-03-16T06:19:02.466Z,13.35
2023-03-16T06:21:31.765Z,13.36
2023-03-16T06:24:09.384Z,13.35
2023-03-16T06:26:38.605Z,13.35
2023-03-16T06:29:08.597Z,13.29
2023-03-16T06:31:39.398Z,13.29
2023-03-16T06:34:08.018Z,13.27
2023-03-16T06:36:39.953Z,13.30
2023-03-16T06:39:11.745Z,13.31
2023-03-16T06:41:44.313Z,13.32
2023-03-16T06:44:16.174Z,13.31
2023-03-16T06:46:55.306Z,13.31
2023-03-16T06:49:24.011Z,13.33
2023-03-16T06:51:53.001Z,13.33
2023-03-16T06:54:21.610Z,13.34
2023-03-16T06:56:49.878Z,13.38
2023-03-16T06:59:18.848Z,13.43
2023-03-16T07:01:47.327Z,13.43
2023-03-16T07:04:16.384Z,13.42
2023-03-16T07:06:45.219Z,13.39
2023-03-16T07:09:16.086Z,13.36
2023-03-16T07:11:44.978Z,13.40
2023-03-16T07:14:13.340Z,13.46
2023-03-16T07:16:45.260Z,13.45
2023-03-16T07:19:13.585Z,13.43
2023-03-16T07:21:42.469Z,13.41
2023-03-16T07:24:15.545Z,13.44
2023-03-16T07:26:43.915Z,13.54
2023-03-16T07:29:14.585Z,13.66
2023-03-16T07:31:43.217Z,13.74
2023-03-16T07:34:18.596Z,13.78
2023-03-16T07:36:49.875Z,13.80
2023-03-16T07:39:18.653Z,13.76
2023-03-16T07:41:51.517Z,13.74
2023-03-16T07:44:29.109Z,13.77
2023-03-16T07:47:00.603Z,13.82
2023-03-16T07:49:30.299Z,13.84
2023-03-16T07:51:58.844Z,13.88
2023-03-16T07:54:32.019Z,13.96
2023-03-16T07:57:01.362Z,14.03
2023-03-16T07:59:38.641Z,14.11
2023-03-16T08:02:10.723Z,14.15
2023-03-16T08:04:38.826Z,14.15
2023-03-16T10:39:35.616Z,10.08
2023-03-16T10:42:02.429Z,13.03
2023-03-16T10:44:30.204Z,13.47
2023-03-16T10:47:05.036Z,13.66
2023-03-16T10:49:46.677Z,13.84
2023-03-16T10:52:39.603Z,14.00
2023-03-16T10:55:11.454Z,14.09
2023-03-16T10:57:41.984Z,14.21
2023-03-16T11:00:20.499Z,14.37
2023-03-16T11:02:51.350Z,14.50
2023-03-16T11:05:18.488Z,14.55
2023-03-16T11:07:50.781Z,14.59
2023-03-16T11:10:55.531Z,14.70
2023-03-16T11:13:34.111Z,14.71
2023-03-16T11:16:06.844Z,14.60
2023-03-16T11:18:44.692Z,14.54
2023-03-16T11:21:36.052Z,14.54
2023-03-16T11:24:16.686Z,14.56
2023-03-16T11:26:43.840Z,14.55
2023-03-16T11:29:34.748Z,14.56
2023-03-16T11:32:05.180Z,14.64
2023-03-16T11:34:32.837Z,14.73
2023-03-16T11:37:25.278Z,14.80
2023-03-16T11:40:15.167Z,14.87
2023-03-16T11:43:11.619Z,14.93
2023-03-16T11:46:02.682Z,15.00
2023-03-16T11:48:41.910Z,15.01
2023-03-16T11:51:35.522Z,14.99
2023-03-16T11:54:20.909Z,14.98
2023-03-16T11:56:51.836Z,14.91
2023-03-16T11:59:38.751Z,14.82
2023-03-16T12:02:30.086Z,14.79
2023-03-16T12:05:21.780Z,14.86
2023-03-16T12:07:52.996Z,14.91
2023-03-16T12:10:25.464Z,14.82
2023-03-16T12:13:11.515Z,14.76
2023-03-16T12:16:06.217Z,14.70
2023-03-16T12:19:01.141Z,14.62
2023-03-16T12:21:39.631Z,14.53
2023-03-16T12:24:11.895Z,14.53
2023-03-16T12:26:41.541Z,14.54
2023-03-16T12:29:33.630Z,14.53
2023-03-16T12:32:18.507Z,14.48
2023-03-16T12:34:54.093Z,14.45
2023-03-16T12:37:40.874Z,14.43
2023-03-16T12:40:16.753Z,14.41
2023-03-16T12:42:54.934Z,14.35
2023-03-16T12:45:44.157Z,14.29
2023-03-16T12:48:26.982Z,14.22
2023-03-16T12:50:58.385Z,14.18
2023-03-16T12:53:46.220Z,14.19
2023-03-16T12:56:18.187Z,14.19
2023-03-16T12:58:48.203Z,14.18
2023-03-16T13:01:17.979Z,14.23
2023-03-16T13:03:58.911Z,14.22
2023-03-16T13:06:25.957Z,14.19
2023-03-16T13:08:59.199Z,14.08
2023-03-16T13:11:27.668Z,13.96
2023-03-16T13:14:01.172Z,13.82
2023-03-16T13:16:33.338Z,13.70
2023-03-16T13:19:25.564Z,13.66
2023-03-16T13:22:04.342Z,13.65
2023-03-16T13:24:39.430Z,13.59
2023-03-16T13:27:29.600Z,13.50
2023-03-16T13:30:12.625Z,13.50
2023-03-16T13:32:40.386Z,13.54
2023-03-16T13:35:09.446Z,13.56
2023-03-16T13:37:36.506Z,13.50
2023-03-16T13:40:04.754Z,13.38
2023-03-16T13:42:34.629Z,13.26
2023-03-16T13:45:13.837Z,13.22
2023-03-16T13:47:42.650Z,13.25
2023-03-16T13:50:12.542Z,13.24
2023-03-16T13:52:39.800Z,13.17
2023-03-16T13:55:16.623Z,13.12
2023-03-16T13:57:44.023Z,13.14
2023-03-16T14:00:22.658Z,13.11
2023-03-16T14:02:53.212Z,13.11
2023-03-16T14:05:30.180Z,13.15
2023-03-16T14:08:00.089Z,13.06
2023-03-16T14:10:34.803Z,12.96
2023-03-16T14:13:27.711Z,12.86
2023-03-16T14:15:56.382Z,12.85
2023-03-16T14:18:33.435Z,12.90
2023-03-16T14:21:00.481Z,12.89
2023-03-16T14:23:33.117Z,12.81
2023-03-16T14:26:00.274Z,12.77
2023-03-16T14:28:32.376Z,12.75
2023-03-16T14:31:35.814Z,12.77
2023-03-16T14:34:04.814Z,12.83
2023-03-16T14:36:39.209Z,12.86
2023-03-16T14:39:13.275Z,12.83
2023-03-16T14:41:40.887Z,12.79
2023-03-16T14:44:17.346Z,12.72
2023-03-16T14:46:44.090Z,12.69
2023-03-16T14:49:18.584Z,12.70
2023-03-16T14:51:45.574Z,12.72
2023-03-16T14:54:15.787Z,12.68
2023-03-16T14:56:43.960Z,12.64
2023-03-16T14:59:13.470Z,12.60
2023-03-16T15:01:40.966Z,12.58
2023-03-16T15:04:07.976Z,12.64
2023-03-16T15:06:35.653Z,12.70
2023-03-16T15:09:02.532Z,12.80
2023-03-16T15:11:34.894Z,12.93
2023-03-16T15:14:14.328Z,13.04
2023-03-16T15:16:43.994Z,13.08
2023-03-16T15:19:11.364Z,13.02
2023-03-16T15:21:39.641Z,12.92
2023-03-16T15:24:10.399Z,12.84
2023-03-16T15:26:37.531Z,12.83
2023-03-16T15:29:05.837Z,12.80
2023-03-16T15:31:33.859Z,12.71
2023-03-16T15:34:01.145Z,12.60
2023-03-16T15:36:28.188Z,12.53
2023-03-16T15:38:56.475Z,12.51
2023-03-16T15:41:26.924Z,12.50
2023-03-16T15:44:00.289Z,12.49
2023-03-16T15:46:27.898Z,12.48
2023-03-16T15:48:54.933Z,12.43
2023-03-16T15:51:28.954Z,12.37
2023-03-16T15:53:59.134Z,12.35
2023-03-16T15:56:41.092Z,12.32
2023-03-16T15:59:13.095Z,12.36
2023-03-16T16:01:44.485Z,12.36
2023-03-16T16:04:18.929Z,12.35
2023-03-16T16:06:47.039Z,12.37
2023-03-16T16:09:14.450Z,12.43
2023-03-16T16:11:41.660Z,12.46
2023-03-16T16:14:15.655Z,12.52
2023-03-16T16:16:45.277Z,12.54
2023-03-16T16:19:15.613Z,12.47
2023-03-16T16:21:48.394Z,12.40
2023-03-16T16:24:17.782Z,12.35
2023-03-16T16:26:53.754Z,12.30
2023-03-16T16:29:24.466Z,12.26
2023-03-16T16:31:51.850Z,12.26
2023-03-16T16:34:21.039Z,12.27
2023-03-16T16:36:48.499Z,12.29
2023-03-16T16:39:15.570Z,12.29
2023-03-16T16:41:48.424Z,12.35
2023-03-16T16:44:20.810Z,12.42
2023-03-16T16:46:49.802Z,12.40
2023-03-16T16:49:25.767Z,12.33
2023-03-16T16:51:52.804Z,12.30
2023-03-16T16:54:23.520Z,12.26
2023-03-16T16:56:54.169Z,12.23
2023-03-16T16:59:28.193Z,12.23
2023-03-16T17:01:56.149Z,12.23
2023-03-16T17:04:25.074Z,12.23
2023-03-16T17:06:57.796Z,12.23
2023-03-16T17:09:26.682Z,12.22
2023-03-16T17:11:55.616Z,12.22
2023-03-16T17:14:27.715Z,12.27
2023-03-16T17:17:04.495Z,12.33
2023-03-16T17:19:32.323Z,12.42
2023-03-16T17:21:59.687Z,12.44
2023-03-16T17:24:29.232Z,12.42
2023-03-16T17:26:58.224Z,12.38
2023-03-16T17:29:29.889Z,12.33
2023-03-16T17:32:00.296Z,12.32
2023-03-16T17:34:28.440Z,12.34
2023-03-16T17:36:58.162Z,12.36
2023-03-16T17:39:29.923Z,12.40
2023-03-16T17:42:05.692Z,12.43
2023-03-16T17:44:34.192Z,12.40
2023-03-16T17:47:01.577Z,12.36
2023-03-16T17:49:30.299Z,12.36
2023-03-16T17:51:57.475Z,12.33
2023-03-16T17:54:24.739Z,12.27
2023-03-16T17:56:53.719Z,12.23
2023-03-16T17:59:21.188Z,12.20
2023-03-16T18:01:52.011Z,12.16
2023-03-16T18:04:25.364Z,12.18
2023-03-16T18:06:53.263Z,12.24
2023-03-16T18:09:20.716Z,12.26
2023-03-16T18:11:49.401Z,12.27
2023-03-16T18:14:36.744Z,12.27
2023-03-16T18:17:19.048Z,12.27
2023-03-16T18:19:46.909Z,12.25
2023-03-16T18:22:21.628Z,12.21
2023-03-16T18:24:49.700Z,12.14
2023-03-16T18:27:16.750Z,12.11
2023-03-16T18:29:45.344Z,12.03
2023-03-16T18:32:18.769Z,11.90
2023-03-16T18:34:47.227Z,11.79
2023-03-16T18:37:25.430Z,11.71
2023-03-16T18:39:54.570Z,11.70
2023-03-16T18:42:23.340Z,11.76
2023-03-16T18:44:50.691Z,11.83
2023-03-16T18:47:19.368Z,11.85
2023-03-16T18:49:49.087Z,11.88
2023-03-16T18:52:21.661Z,11.88
2023-03-16T18:54:50.957Z,11.89
2023-03-16T18:57:22.958Z,11.94
2023-03-16T18:59:50.592Z,11.99
2023-03-16T19:02:32.902Z,11.97
2023-03-16T19:05:01.174Z,11.91
2023-03-16T19:07:32.431Z,11.85
2023-03-16T19:17:44.707Z,11.88
2023-03-16T19:20:16.717Z,11.86
2023-03-16T19:22:47.855Z,11.88
2023-03-16T19:25:17.922Z,11.90
2023-03-16T19:27:47.305Z,11.91
2023-03-16T19:30:27.564Z,11.94
2023-03-16T19:32:56.830Z,11.96
2023-03-16T19:35:48.592Z,11.96
2023-03-16T19:45:59.701Z,11.86
2023-03-16T19:48:32.063Z,11.79
2023-03-16T19:51:02.277Z,11.74
2023-03-16T19:53:32.341Z,11.76
2023-03-16T19:56:01.285Z,11.83
2023-03-16T19:58:39.477Z,11.88
2023-03-16T20:01:17.881Z,11.91
2023-03-16T20:03:47.891Z,11.80
2023-03-16T20:06:21.093Z,11.71
2023-03-16T20:08:49.955Z,11.63
2023-03-16T20:11:24.057Z,11.62
2023-03-16T20:13:52.171Z,11.61
2023-03-16T20:16:35.728Z,11.58
2023-03-16T20:19:11.414Z,11.57
2023-03-16T20:21:40.251Z,11.56
2023-03-16T20:24:15.484Z,11.51
2023-03-16T20:26:44.488Z,11.47
2023-03-16T20:29:22.375Z,11.43
2023-03-16T20:31:50.943Z,11.41
2023-03-16T20:34:31.430Z,11.42
2023-03-16T20:37:00.523Z,11.38
2023-03-16T20:39:28.908Z,11.32
2023-03-16T20:41:57.426Z,11.25
2023-03-16T20:44:29.755Z,11.21
2023-03-16T20:46:59.494Z,11.22
2023-03-16T20:49:30.308Z,11.23
2023-03-16T20:51:58.885Z,11.27
2023-03-16T20:54:28.055Z,11.30
2023-03-16T20:56:56.368Z,11.32
2023-03-16T20:59:25.605Z,11.37
2023-03-16T21:01:55.956Z,11.39
2023-03-16T21:04:27.589Z,11.31
2023-03-16T21:06:56.973Z,11.23
2023-03-16T21:09:25.795Z,11.16
2023-03-16T21:11:54.070Z,11.17
2023-03-16T21:14:23.740Z,11.23
2023-03-16T21:16:52.825Z,11.23
2023-03-16T21:19:22.995Z,11.19
2023-03-16T21:21:52.049Z,11.15
2023-03-16T21:24:21.383Z,11.17
2023-03-16T21:26:50.859Z,11.22
2023-03-16T21:29:21.548Z,11.24
2023-03-16T21:31:53.000Z,11.25
2023-03-16T21:34:24.396Z,11.29
2023-03-16T21:36:56.689Z,11.31
2023-03-16T21:39:25.525Z,11.32
2023-03-16T21:41:54.154Z,11.33
2023-03-16T21:44:23.138Z,11.36
2023-03-16T21:46:51.548Z,11.38
2023-03-16T21:49:19.867Z,11.39
2023-03-16T21:51:52.474Z,11.35
2023-03-16T21:54:21.070Z,11.30
2023-03-16T21:56:50.574Z,11.27
2023-03-16T21:59:19.466Z,11.25
2023-03-16T22:02:01.053Z,11.26
2023-03-16T22:04:30.276Z,11.29
2023-03-16T22:06:58.509Z,11.35
2023-03-16T22:09:30.547Z,11.37
2023-03-16T22:11:58.972Z,11.32
2023-03-16T22:14:31.664Z,11.32
2023-03-16T22:17:03.000Z,11.30
2023-03-16T22:19:31.694Z,11.27
2023-03-16T22:22:03.771Z,11.25
2023-03-16T22:24:37.158Z,11.24
2023-03-16T22:27:11.945Z,11.20
2023-03-16T22:29:44.593Z,11.17
2023-03-16T22:32:16.773Z,11.18
2023-03-16T22:34:56.293Z,11.22
2023-03-16T22:37:27.826Z,11.22
2023-03-16T22:39:58.646Z,11.20
2023-03-16T22:42:38.238Z,11.16
2023-03-16T22:45:19.179Z,11.15
2023-03-16T22:47:50.436Z,11.14
2023-03-16T22:50:20.041Z,11.16
2023-03-16T22:52:49.935Z,11.16
2023-03-16T22:56:53.470Z,9.82
2023-03-16T22:59:23.085Z,10.85
2023-03-16T23:01:52.203Z,11.00
2023-03-16T23:04:22.898Z,11.03
2023-03-16T23:06:54.190Z,11.00
2023-03-16T23:09:22.777Z,10.94
2023-03-16T23:11:54.471Z,10.94
2023-03-16T23:14:29.160Z,10.94
2023-03-16T23:16:57.526Z,10.96
2023-03-16T23:19:31.989Z,10.98
2023-03-16T23:22:03.579Z,11.05
2023-03-16T23:24:35.071Z,11.13
2023-03-16T23:27:04.755Z,11.16
2023-03-16T23:29:34.054Z,11.12
2023-03-16T23:32:04.608Z,11.09
2023-03-16T23:34:33.489Z,11.06
2023-03-16T23:37:02.102Z,11.00
2023-03-16T23:39:31.816Z,11.00
2023-03-16T23:42:00.107Z,11.05
2023-03-16T23:44:28.439Z,11.09
2023-03-16T23:46:57.846Z,11.09
2023-03-16T23:49:40.162Z,11.04
2023-03-16T23:52:09.974Z,11.01
2023-03-16T23:54:38.641Z,11.00
2023-03-16T23:57:08.980Z,11.05
2023-03-16T23:59:37.254Z,11.08
